sensor_id;sensor_type;location;lat;lon;timestamp;pressure;altitude;pressure_sealevel;temperature;humidity
62710;BME280;48770;51.624;5.886;2022-10-01T00:01:54;100250.44;;;18.26;47.60
62710;BME280;48770;51.624;5.886;2022-10-01T00:04:20;100250.44;;;18.26;47.42
62710;BME280;48770;51.624;5.886;2022-10-01T00:06:46;100245.25;;;18.25;47.82
62710;BME280;48770;51.624;5.886;2022-10-01T00:09:11;100260.25;;;18.24;47.89
62710;BME280;48770;51.624;5.886;2022-10-01T00:11:37;100257.81;;;18.22;47.92
62710;BME280;48770;51.624;5.886;2022-10-01T00:14:02;100252.59;;;18.21;47.97
62710;BME280;48770;51.624;5.886;2022-10-01T00:16:29;100245.47;;;18.19;47.89
62710;BME280;48770;51.624;5.886;2022-10-01T00:18:56;100243.84;;;18.18;47.87
62710;BME280;48770;51.624;5.886;2022-10-01T00:21:28;100239.47;;;18.17;48.02
62710;BME280;48770;51.624;5.886;2022-10-01T00:23:59;100233.50;;;18.15;47.92
62710;BME280;48770;51.624;5.886;2022-10-01T00:26:27;100231.88;;;18.14;47.94
62710;BME280;48770;51.624;5.886;2022-10-01T00:29:00;100223.94;;;18.13;47.68
62710;BME280;48770;51.624;5.886;2022-10-01T00:31:26;100199.72;;;18.10;48.18
62710;BME280;48770;51.624;5.886;2022-10-01T00:33:56;100199.72;;;18.10;48.08
62710;BME280;48770;51.624;5.886;2022-10-01T00:36:22;100201.69;;;18.09;47.76
62710;BME280;48770;51.624;5.886;2022-10-01T00:38:48;100196.50;;;18.08;48.15
62710;BME280;48770;51.624;5.886;2022-10-01T00:41:14;100188.19;;;18.08;47.76
62710;BME280;48770;51.624;5.886;2022-10-01T00:43:49;100191.31;;;18.06;47.95
62710;BME280;48770;51.624;5.886;2022-10-01T00:46:19;100180.97;;;18.03;47.87
62710;BME280;48770;51.624;5.886;2022-10-01T00:49:10;100188.00;;;18.01;47.92
62710;BME280;48770;51.624;5.886;2022-10-01T00:51:42;100182.81;;;17.99;47.89
62710;BME280;48770;51.624;5.886;2022-10-01T00:54:14;100187.19;;;18.00;48.28
62710;BME280;48770;51.624;5.886;2022-10-01T00:56:42;100176.81;;;17.97;48.17
62710;BME280;48770;51.624;5.886;2022-10-01T00:59:09;100177.63;;;17.98;48.02
62710;BME280;48770;51.624;5.886;2022-10-01T01:01:35;100166.56;;;17.98;48.03
62710;BME280;48770;51.624;5.886;2022-10-01T01:04:01;100168.53;;;17.97;48.08
62710;BME280;48770;51.624;5.886;2022-10-01T01:06:27;100184.63;;;17.95;48.25
62710;BME280;48770;51.624;5.886;2022-10-01T01:08:53;100195.69;;;17.95;48.18
62710;BME280;48770;51.624;5.886;2022-10-01T01:11:38;100181.41;;;17.93;48.19
62710;BME280;48770;51.624;5.886;2022-10-01T01:17:49;100171.75;;;17.87;48.32
62710;BME280;48770;51.624;5.886;2022-10-01T01:20:27;100169.34;;;17.85;48.13
62710;BME280;48770;51.624;5.886;2022-10-01T01:30:49;100146.75;;;17.83;48.48
62710;BME280;48770;51.624;5.886;2022-10-01T01:33:19;100136.06;;;17.82;48.20
62710;BME280;48770;51.624;5.886;2022-10-01T01:35:50;100113.94;;;17.82;48.47
62710;BME280;48770;51.624;5.886;2022-10-01T01:38:21;100123.38;;;17.81;48.49
62710;BME280;48770;51.624;5.886;2022-10-01T01:40:50;100117.41;;;17.79;48.44
62710;BME280;48770;51.624;5.886;2022-10-01T01:43:23;100062.09;;;17.79;48.49
62710;BME280;48770;51.624;5.886;2022-10-01T01:45:51;100019.81;;;17.78;48.63
62710;BME280;48770;51.624;5.886;2022-10-01T01:48:20;100006.78;;;17.79;48.38
62710;BME280;48770;51.624;5.886;2022-10-01T01:50:52;100011.88;;;17.77;48.60
62710;BME280;48770;51.624;5.886;2022-10-01T01:53:20;99992.88;;;17.75;48.49
62710;BME280;48770;51.624;5.886;2022-10-01T01:55:45;99984.56;;;17.75;48.51
62710;BME280;48770;51.624;5.886;2022-10-01T01:58:14;99983.78;;;17.75;48.42
62710;BME280;48770;51.624;5.886;2022-10-01T02:00:40;100016.50;;;17.73;48.41
62710;BME280;48770;51.624;5.886;2022-10-01T02:03:06;100032.63;;;17.71;48.48
62710;BME280;48770;51.624;5.886;2022-10-01T02:05:40;100056.72;;;17.70;48.46
62710;BME280;48770;51.624;5.886;2022-10-01T02:08:33;100058.19;;;17.68;48.59
62710;BME280;48770;51.624;5.886;2022-10-01T02:11:03;100062.09;;;17.67;48.39
62710;BME280;48770;51.624;5.886;2022-10-01T02:13:35;100060.97;;;17.68;48.69
62710;BME280;48770;51.624;5.886;2022-10-01T02:16:36;100043.78;;;17.62;48.49
62710;BME280;48770;51.624;5.886;2022-10-01T02:19:30;100029.59;;;17.64;48.46
62710;BME280;48770;51.624;5.886;2022-10-01T02:22:00;100018.09;;;17.62;48.65
62710;BME280;48770;51.624;5.886;2022-10-01T02:24:36;100022.81;;;17.61;48.80
62710;BME280;48770;51.624;5.886;2022-10-01T02:27:06;100031.47;;;17.60;48.43
62710;BME280;48770;51.624;5.886;2022-10-01T02:29:33;100017.66;;;17.60;48.77
62710;BME280;48770;51.624;5.886;2022-10-01T02:32:00;100017.19;;;17.57;48.72
62710;BME280;48770;51.624;5.886;2022-10-01T02:34:28;100013.19;;;17.55;48.64
62710;BME280;48770;51.624;5.886;2022-10-01T02:36:55;100008.81;;;17.54;48.48
62710;BME280;48770;51.624;5.886;2022-10-01T02:39:23;100009.97;;;17.53;48.93
62710;BME280;48770;51.624;5.886;2022-10-01T02:41:51;99994.53;;;17.52;48.72
62710;BME280;48770;51.624;5.886;2022-10-01T02:44:20;99987.75;;;17.49;49.04
62710;BME280;48770;51.624;5.886;2022-10-01T02:46:58;99984.19;;;17.49;48.92
62710;BME280;48770;51.624;5.886;2022-10-01T02:49:26;99977.41;;;17.46;49.05
62710;BME280;48770;51.624;5.886;2022-10-01T02:54:50;99963.44;;;17.43;49.00
62710;BME280;48770;51.624;5.886;2022-10-01T02:57:19;99951.94;;;17.41;49.14
62710;BME280;48770;51.624;5.886;2022-10-01T02:59:48;99972.09;;;17.41;48.97
62710;BME280;48770;51.624;5.886;2022-10-01T03:02:14;99960.22;;;17.41;49.21
62710;BME280;48770;51.624;5.886;2022-10-01T03:04:39;99948.38;;;17.40;49.22
62710;BME280;48770;51.624;5.886;2022-10-01T03:07:05;99952.28;;;17.39;49.27
62710;BME280;48770;51.624;5.886;2022-10-01T03:09:30;99946.31;;;17.37;48.97
62710;BME280;48770;51.624;5.886;2022-10-01T03:11:56;99944.72;;;17.36;49.24
62710;BME280;48770;51.624;5.886;2022-10-01T03:14:22;99960.13;;;17.37;49.31
62710;BME280;48770;51.624;5.886;2022-10-01T03:16:49;99947.47;;;17.36;49.07
62710;BME280;48770;51.624;5.886;2022-10-01T03:19:15;99938.72;;;17.34;49.28
62710;BME280;48770;51.624;5.886;2022-10-01T03:21:40;99960.84;;;17.34;49.33
62710;BME280;48770;51.624;5.886;2022-10-01T03:24:05;99950.94;;;17.33;49.21
62710;BME280;48770;51.624;5.886;2022-10-01T03:26:31;99952.91;;;17.33;49.46
62710;BME280;48770;51.624;5.886;2022-10-01T03:28:57;99959.22;;;17.33;49.59
62710;BME280;48770;51.624;5.886;2022-10-01T03:31:22;99954.06;;;17.32;49.46
62710;BME280;48770;51.624;5.886;2022-10-01T03:33:47;99966.25;;;17.31;49.50
62710;BME280;48770;51.624;5.886;2022-10-01T03:36:13;99950.84;;;17.30;49.05
62710;BME280;48770;51.624;5.886;2022-10-01T03:38:38;99937.38;;;17.28;49.38
62710;BME280;48770;51.624;5.886;2022-10-01T03:41:03;99949.22;;;17.29;49.05
62710;BME280;48770;51.624;5.886;2022-10-01T03:43:29;99947.63;;;17.27;49.41
62710;BME280;48770;51.624;5.886;2022-10-01T03:45:54;99944.06;;;17.27;49.35
62710;BME280;48770;51.624;5.886;2022-10-01T03:48:21;99940.50;;;17.26;49.54
62710;BME280;48770;51.624;5.886;2022-10-01T03:50:57;99941.66;;;17.25;49.40
62710;BME280;48770;51.624;5.886;2022-10-01T03:53:24;99949.13;;;17.25;49.21
62710;BME280;48770;51.624;5.886;2022-10-01T03:55:50;99955.81;;;17.24;49.40
62710;BME280;48770;51.624;5.886;2022-10-01T03:58:16;99953.41;;;17.22;49.50
62710;BME280;48770;51.624;5.886;2022-10-01T04:00:43;99949.47;;;17.23;49.61
62710;BME280;48770;51.624;5.886;2022-10-01T04:03:09;99950.63;;;17.22;49.62
62710;BME280;48770;51.624;5.886;2022-10-01T04:05:35;99942.34;;;17.22;49.51
62710;BME280;48770;51.624;5.886;2022-10-01T04:08:00;99949.84;;;17.22;49.55
62710;BME280;48770;51.624;5.886;2022-10-01T04:10:26;99954.91;;;17.20;49.42
62710;BME280;48770;51.624;5.886;2022-10-01T04:12:51;99954.91;;;17.20;49.37
62710;BME280;48770;51.624;5.886;2022-10-01T04:15:16;99957.66;;;17.20;49.47
62710;BME280;48770;51.624;5.886;2022-10-01T04:17:42;99958.00;;;17.18;49.47
62710;BME280;48770;51.624;5.886;2022-10-01T04:20:07;99962.72;;;17.18;49.67
62710;BME280;48770;51.624;5.886;2022-10-01T04:22:39;99962.72;;;17.18;49.44
62710;BME280;48770;51.624;5.886;2022-10-01T04:25:06;99969.88;;;17.19;49.26
62710;BME280;48770;51.624;5.886;2022-10-01T04:27:33;99963.84;;;17.17;49.52
62710;BME280;48770;51.624;5.886;2022-10-01T04:29:58;99955.13;;;17.15;49.33
62710;BME280;48770;51.624;5.886;2022-10-01T04:32:23;99965.38;;;17.14;49.50
62710;BME280;48770;51.624;5.886;2022-10-01T04:34:48;99962.59;;;17.14;49.55
62710;BME280;48770;51.624;5.886;2022-10-01T04:37:17;99974.44;;;17.15;49.71
62710;BME280;48770;51.624;5.886;2022-10-01T04:39:43;99961.78;;;17.14;49.50
62710;BME280;48770;51.624;5.886;2022-10-01T04:42:08;99961.00;;;17.13;49.55
62710;BME280;48770;51.624;5.886;2022-10-01T04:44:34;99963.75;;;17.13;49.50
62710;BME280;48770;51.624;5.886;2022-10-01T04:47:00;99976.75;;;17.13;49.68
62710;BME280;48770;51.624;5.886;2022-10-01T04:49:25;99975.16;;;17.12;49.40
62710;BME280;48770;51.624;5.886;2022-10-01T04:51:51;99983.44;;;17.12;49.51
62710;BME280;48770;51.624;5.886;2022-10-01T04:54:16;99984.59;;;17.11;49.71
62710;BME280;48770;51.624;5.886;2022-10-01T04:56:41;99980.22;;;17.10;49.62
62710;BME280;48770;51.624;5.886;2022-10-01T04:59:06;99974.69;;;17.10;49.44
62710;BME280;48770;51.624;5.886;2022-10-01T05:01:32;99987.69;;;17.09;49.70
62710;BME280;48770;51.624;5.886;2022-10-01T05:03:57;99984.13;;;17.09;49.78
62710;BME280;48770;51.624;5.886;2022-10-01T05:06:23;99983.34;;;17.08;49.68
62710;BME280;48770;51.624;5.886;2022-10-01T05:08:50;99990.81;;;17.08;49.68
62710;BME280;48770;51.624;5.886;2022-10-01T05:11:16;99978.16;;;17.07;49.86
62710;BME280;48770;51.624;5.886;2022-10-01T05:13:42;99998.28;;;17.07;49.52
62710;BME280;48770;51.624;5.886;2022-10-01T05:16:08;100003.00;;;17.07;49.66
62710;BME280;48770;51.624;5.886;2022-10-01T05:18:33;100003.00;;;17.07;49.53
62710;BME280;48770;51.624;5.886;2022-10-01T05:21:03;100012.44;;;17.06;49.60
62710;BME280;48770;51.624;5.886;2022-10-01T05:23:29;100003.38;;;17.05;49.66
62710;BME280;48770;51.624;5.886;2022-10-01T05:25:54;100023.84;;;17.04;49.88
62710;BME280;48770;51.624;5.886;2022-10-01T05:28:19;100018.66;;;17.03;49.85
62710;BME280;48770;51.624;5.886;2022-10-01T05:30:45;100015.91;;;17.03;49.61
62710;BME280;48770;51.624;5.886;2022-10-01T05:33:10;100029.72;;;17.03;49.85
62710;BME280;48770;51.624;5.886;2022-10-01T05:35:36;100028.91;;;17.02;49.72
62710;BME280;48770;51.624;5.886;2022-10-01T05:38:01;100041.91;;;17.02;49.94
62710;BME280;48770;51.624;5.886;2022-10-01T05:40:28;100043.88;;;17.01;49.61
62710;BME280;48770;51.624;5.886;2022-10-01T05:42:55;100046.63;;;17.01;49.88
62710;BME280;48770;51.624;5.886;2022-10-01T05:45:23;100043.06;;;17.01;49.88
62710;BME280;48770;51.624;5.886;2022-10-01T05:47:59;100041.47;;;17.00;49.66
62710;BME280;48770;51.624;5.886;2022-10-01T05:50:26;100053.31;;;17.00;49.70
62710;BME280;48770;51.624;5.886;2022-10-01T05:52:52;100055.28;;;17.00;49.93
62710;BME280;48770;51.624;5.886;2022-10-01T05:55:19;100061.13;;;16.98;50.00
62710;BME280;48770;51.624;5.886;2022-10-01T05:57:55;100059.19;;;16.99;49.93
62710;BME280;48770;51.624;5.886;2022-10-01T06:00:21;100064.72;;;16.99;49.77
62710;BME280;48770;51.624;5.886;2022-10-01T06:02:51;100058.38;;;16.98;49.94
62710;BME280;48770;51.624;5.886;2022-10-01T06:05:17;100068.63;;;16.98;50.09
62710;BME280;48770;51.624;5.886;2022-10-01T06:07:43;100073.34;;;16.97;50.11
62710;BME280;48770;51.624;5.886;2022-10-01T06:10:08;100074.50;;;16.96;49.93
62710;BME280;48770;51.624;5.886;2022-10-01T06:12:33;100074.50;;;16.96;50.14
62710;BME280;48770;51.624;5.886;2022-10-01T06:14:59;100075.28;;;16.97;49.80
62710;BME280;48770;51.624;5.886;2022-10-01T06:17:24;100078.41;;;16.95;49.79
62710;BME280;48770;51.624;5.886;2022-10-01T06:19:49;100090.25;;;16.95;49.95
62710;BME280;48770;51.624;5.886;2022-10-01T06:22:16;100084.72;;;16.95;49.47
62710;BME280;48770;51.624;5.886;2022-10-01T06:24:42;100081.97;;;16.95;49.91
62710;BME280;48770;51.624;5.886;2022-10-01T06:27:07;100080.34;;;16.94;49.94
62710;BME280;48770;51.624;5.886;2022-10-01T06:29:33;100100.50;;;16.95;49.70
62710;BME280;48770;51.624;5.886;2022-10-01T06:31:58;100093.34;;;16.94;49.95
62710;BME280;48770;51.624;5.886;2022-10-01T06:34:24;100092.56;;;16.93;49.70
62710;BME280;48770;51.624;5.886;2022-10-01T06:36:50;100092.56;;;16.93;50.09
62710;BME280;48770;51.624;5.886;2022-10-01T06:39:15;100100.03;;;16.93;49.75
62710;BME280;48770;51.624;5.886;2022-10-01T06:41:41;100098.41;;;16.92;49.86
62710;BME280;48770;51.624;5.886;2022-10-01T06:44:08;100100.03;;;16.93;49.92
62710;BME280;48770;51.624;5.886;2022-10-01T06:46:33;100109.47;;;16.92;49.85
62710;BME280;48770;51.624;5.886;2022-10-01T06:48:58;100103.13;;;16.91;49.66
62710;BME280;48770;51.624;5.886;2022-10-01T06:51:24;100100.38;;;16.91;49.93
62710;BME280;48770;51.624;5.886;2022-10-01T06:54:09;100097.94;;;16.90;50.20
62710;BME280;48770;51.624;5.886;2022-10-01T06:56:35;100098.72;;;16.90;49.46
62710;BME280;48770;51.624;5.886;2022-10-01T06:59:01;100103.44;;;16.90;49.83
62710;BME280;48770;51.624;5.886;2022-10-01T07:01:26;100106.22;;;16.90;49.49
62710;BME280;48770;51.624;5.886;2022-10-01T07:03:51;100097.94;;;16.90;50.00
62710;BME280;48770;51.624;5.886;2022-10-01T07:06:18;100102.66;;;16.89;50.12
62710;BME280;48770;51.624;5.886;2022-10-01T07:08:47;100105.41;;;16.89;49.81
62710;BME280;48770;51.624;5.886;2022-10-01T07:11:13;100116.44;;;16.89;49.76
62710;BME280;48770;51.624;5.886;2022-10-01T07:13:38;100120.38;;;16.88;49.82
62710;BME280;48770;51.624;5.886;2022-10-01T07:16:03;100125.88;;;16.88;49.86
62710;BME280;48770;51.624;5.886;2022-10-01T07:18:29;100125.88;;;16.88;49.93
62710;BME280;48770;51.624;5.886;2022-10-01T07:20:56;100129.44;;;16.89;49.66
62710;BME280;48770;51.624;5.886;2022-10-01T07:23:21;100129.78;;;16.87;49.99
62710;BME280;48770;51.624;5.886;2022-10-01T07:25:49;100126.69;;;16.89;50.10
62710;BME280;48770;51.624;5.886;2022-10-01T07:28:16;100125.88;;;16.88;50.12
62710;BME280;48770;51.624;5.886;2022-10-01T07:30:44;100129.78;;;16.87;49.92
62710;BME280;48770;51.624;5.886;2022-10-01T07:33:11;100129.00;;;16.87;49.92
62710;BME280;48770;51.624;5.886;2022-10-01T07:35:37;100131.75;;;16.87;50.06
62710;BME280;48770;51.624;5.886;2022-10-01T07:38:02;100133.72;;;16.86;50.09
62710;BME280;48770;51.624;5.886;2022-10-01T07:40:31;100139.22;;;16.86;50.00
62710;BME280;48770;51.624;5.886;2022-10-01T07:42:57;100151.44;;;16.85;50.09
62710;BME280;48770;51.624;5.886;2022-10-01T07:45:23;100153.38;;;16.85;50.04
62710;BME280;48770;51.624;5.886;2022-10-01T07:47:56;100151.44;;;16.85;49.89
62710;BME280;48770;51.624;5.886;2022-10-01T07:50:23;100153.38;;;16.85;50.22
62710;BME280;48770;51.624;5.886;2022-10-01T07:52:53;100152.56;;;16.84;49.74
62710;BME280;48770;51.624;5.886;2022-10-01T07:55:21;100163.63;;;16.84;49.71
62710;BME280;48770;51.624;5.886;2022-10-01T07:57:55;100162.81;;;16.84;50.21
62710;BME280;48770;51.624;5.886;2022-10-01T08:00:21;100168.53;;;16.67;50.37
62710;BME280;48770;51.624;5.886;2022-10-01T08:02:52;100176.72;;;16.75;50.29
62710;BME280;48770;51.624;5.886;2022-10-01T08:05:24;100179.94;;;16.77;50.24
62710;BME280;48770;51.624;5.886;2022-10-01T08:07:51;100189.03;;;16.78;50.13
62710;BME280;48770;51.624;5.886;2022-10-01T08:10:18;100191.09;;;16.81;50.01
62710;BME280;48770;51.624;5.886;2022-10-01T08:12:44;100195.81;;;16.80;50.30
62710;BME280;48770;51.624;5.886;2022-10-01T08:15:11;100188.34;;;16.81;50.00
62710;BME280;48770;51.624;5.886;2022-10-01T08:17:37;100185.25;;;16.82;49.92
62710;BME280;48770;51.624;5.886;2022-10-01T08:20:03;100180.88;;;16.81;49.91
62710;BME280;48770;51.624;5.886;2022-10-01T08:22:29;100184.44;;;16.82;49.98
62710;BME280;48770;51.624;5.886;2022-10-01T08:24:54;100191.91;;;16.81;50.12
62710;BME280;48770;51.624;5.886;2022-10-01T08:27:22;100207.31;;;16.82;50.35
62710;BME280;48770;51.624;5.886;2022-10-01T08:29:48;100209.28;;;16.82;50.29
62710;BME280;48770;51.624;5.886;2022-10-01T08:32:13;100200.19;;;16.81;50.24
62710;BME280;48770;51.624;5.886;2022-10-01T08:34:38;100195.81;;;16.80;50.42
62710;BME280;48770;51.624;5.886;2022-10-01T08:37:04;100199.72;;;16.79;50.04
62710;BME280;48770;51.624;5.886;2022-10-01T08:39:29;100214.00;;;16.81;50.46
62710;BME280;48770;51.624;5.886;2022-10-01T08:42:00;100224.22;;;16.81;50.07
62710;BME280;48770;51.624;5.886;2022-10-01T08:44:32;100235.28;;;16.81;50.04
62710;BME280;48770;51.624;5.886;2022-10-01T08:47:10;100232.84;;;16.79;50.34
62710;BME280;48770;51.624;5.886;2022-10-01T08:49:46;100230.09;;;16.79;50.27
62710;BME280;48770;51.624;5.886;2022-10-01T08:57:12;100242.75;;;16.80;50.32
62710;BME280;48770;51.624;5.886;2022-10-01T08:59:45;100237.22;;;16.80;50.35
62710;BME280;48770;51.624;5.886;2022-10-01T09:02:30;100238.72;;;16.78;50.29
62710;BME280;48770;51.624;5.886;2022-10-01T09:04:59;100239.88;;;16.77;50.28
62710;BME280;48770;51.624;5.886;2022-10-01T09:12:45;100238.38;;;16.79;50.08
62710;BME280;48770;51.624;5.886;2022-10-01T09:18:11;100247.34;;;16.76;50.45
62710;BME280;48770;51.624;5.886;2022-10-01T09:20:41;100252.88;;;16.76;50.42
62710;BME280;48770;51.624;5.886;2022-10-01T09:23:17;100254.47;;;16.77;50.08
62710;BME280;48770;51.624;5.886;2022-10-01T09:25:44;100258.84;;;16.78;50.43
62710;BME280;48770;51.624;5.886;2022-10-01T09:28:17;100259.66;;;16.79;50.25
62710;BME280;48770;51.624;5.886;2022-10-01T09:30:54;100254.13;;;16.79;50.31
62710;BME280;48770;51.624;5.886;2022-10-01T09:33:22;100265.19;;;16.79;50.41
62710;BME280;48770;51.624;5.886;2022-10-01T09:36:15;100268.28;;;16.77;50.48
62710;BME280;48770;51.624;5.886;2022-10-01T09:38:45;100272.19;;;16.76;50.21
62710;BME280;48770;51.624;5.886;2022-10-01T09:41:12;100279.31;;;16.77;50.07
62710;BME280;48770;51.624;5.886;2022-10-01T09:43:40;100275.41;;;16.78;50.51
62710;BME280;48770;51.624;5.886;2022-10-01T09:46:07;100288.06;;;16.79;50.12
62710;BME280;48770;51.624;5.886;2022-10-01T09:48:45;100288.06;;;16.79;50.50
62710;BME280;48770;51.624;5.886;2022-10-01T09:53:47;100288.06;;;16.79;50.50
62710;BME280;48770;51.624;5.886;2022-10-01T09:56:22;100282.56;;;16.79;50.55
62710;BME280;48770;51.624;5.886;2022-10-01T09:58:53;100288.06;;;16.79;50.31
62710;BME280;48770;51.624;5.886;2022-10-01T10:01:41;100284.84;;;16.77;50.46
62710;BME280;48770;51.624;5.886;2022-10-01T10:04:08;100296.34;;;16.79;50.55
62710;BME280;48770;51.624;5.886;2022-10-01T10:06:33;100299.13;;;16.79;50.62
62710;BME280;48770;51.624;5.886;2022-10-01T10:09:00;100297.97;;;16.80;50.48
62710;BME280;48770;51.624;5.886;2022-10-01T10:11:28;100298.78;;;16.81;50.35
62710;BME280;48770;51.624;5.886;2022-10-01T10:14:00;100305.09;;;16.81;50.29
62710;BME280;48770;51.624;5.886;2022-10-01T10:16:30;100297.16;;;16.80;50.39
62710;BME280;48770;51.624;5.886;2022-10-01T10:21:36;100305.09;;;16.81;50.64
62710;BME280;48770;51.624;5.886;2022-10-01T10:24:05;100315.00;;;16.82;50.63
62710;BME280;48770;51.624;5.886;2022-10-01T10:26:36;100308.69;;;16.82;50.56
62710;BME280;48770;51.624;5.886;2022-10-01T10:29:04;100315.81;;;16.83;50.51
62710;BME280;48770;51.624;5.886;2022-10-01T10:31:41;100309.47;;;16.82;50.52
62710;BME280;48770;51.624;5.886;2022-10-01T10:36:37;100318.56;;;16.83;50.65
62710;BME280;48770;51.624;5.886;2022-10-01T10:39:05;100329.28;;;16.84;50.50
62710;BME280;48770;51.624;5.886;2022-10-01T10:41:34;100330.44;;;16.83;50.38
62710;BME280;48770;51.624;5.886;2022-10-01T10:44:05;100351.38;;;16.84;50.37
62710;BME280;48770;51.624;5.886;2022-10-01T10:46:33;100357.69;;;16.85;50.51
62710;BME280;48770;51.624;5.886;2022-10-01T10:49:26;100351.72;;;16.83;50.24
62710;BME280;48770;51.624;5.886;2022-10-01T10:51:55;100362.75;;;16.83;50.32
62710;BME280;48770;51.624;5.886;2022-10-01T10:54:30;100354.13;;;16.84;50.32
62710;BME280;48770;51.624;5.886;2022-10-01T10:57:02;100362.41;;;16.84;50.31
62710;BME280;48770;51.624;5.886;2022-10-01T10:59:29;100361.25;;;16.85;50.78
62710;BME280;48770;51.624;5.886;2022-10-01T11:01:56;100365.66;;;16.86;50.43
62710;BME280;48770;51.624;5.886;2022-10-01T11:04:26;100363.69;;;16.87;50.45
62710;BME280;48770;51.624;5.886;2022-10-01T11:06:55;100370.03;;;16.87;50.43
62710;BME280;48770;51.624;5.886;2022-10-01T11:09:22;100368.88;;;16.88;50.50
62710;BME280;48770;51.624;5.886;2022-10-01T11:12:06;100366.44;;;16.87;50.51
62710;BME280;48770;51.624;5.886;2022-10-01T11:17:36;100377.84;;;16.85;50.73
62710;BME280;48770;51.624;5.886;2022-10-01T11:20:38;100375.75;;;16.82;50.66
62710;BME280;48770;51.624;5.886;2022-10-01T11:23:17;100383.69;;;16.84;50.75
62710;BME280;48770;51.624;5.886;2022-10-01T11:26:03;100384.97;;;16.86;50.92
62710;BME280;48770;51.624;5.886;2022-10-01T11:31:36;100389.22;;;16.84;50.82
62710;BME280;48770;51.624;5.886;2022-10-01T11:36:50;100404.31;;;16.86;50.89
62710;BME280;48770;51.624;5.886;2022-10-01T11:39:20;100415.47;;;16.69;51.25
62710;BME280;48770;51.624;5.886;2022-10-01T11:42:08;100410.69;;;16.78;50.84
62710;BME280;48770;51.624;5.886;2022-10-01T11:44:51;100415.22;;;16.83;51.16
62710;BME280;48770;51.624;5.886;2022-10-01T11:47:34;100409.34;;;16.84;50.64
62710;BME280;48770;51.624;5.886;2022-10-01T11:50:05;100420.88;;;16.86;50.75
62710;BME280;48770;51.624;5.886;2022-10-01T11:52:34;100420.88;;;16.86;50.77
62710;BME280;48770;51.624;5.886;2022-10-01T11:57:54;100444.56;;;16.87;50.85
62710;BME280;48770;51.624;5.886;2022-10-01T12:00:43;100442.63;;;16.88;50.67
62710;BME280;48770;51.624;5.886;2022-10-01T12:03:17;100436.75;;;16.89;51.14
62710;BME280;48770;51.624;5.886;2022-10-01T12:05:45;100437.56;;;16.90;50.75
62710;BME280;48770;51.624;5.886;2022-10-01T12:08:17;100443.91;;;16.90;51.09
62710;BME280;48770;51.624;5.886;2022-10-01T12:11:00;100443.09;;;16.90;51.19
62710;BME280;48770;51.624;5.886;2022-10-01T12:13:36;100447.16;;;16.92;50.94
62710;BME280;48770;51.624;5.886;2022-10-01T12:16:13;100467.31;;;16.93;50.63
62710;BME280;48770;51.624;5.886;2022-10-01T12:19:01;100469.25;;;16.92;51.05
62710;BME280;48770;51.624;5.886;2022-10-01T12:21:35;100470.06;;;16.93;51.15
62710;BME280;48770;51.624;5.886;2022-10-01T12:29:57;100481.91;;;16.93;51.15
62710;BME280;48770;51.624;5.886;2022-10-01T12:51:39;100518.28;;;16.95;50.92
62710;BME280;48770;51.624;5.886;2022-10-01T12:57:28;100521.66;;;17.01;51.44
62710;BME280;48770;51.624;5.886;2022-10-01T13:00:21;100515.88;;;17.15;51.92
62710;BME280;48770;51.624;5.886;2022-10-01T13:11:02;100527.13;;;18.14;51.68
62710;BME280;48770;51.624;5.886;2022-10-01T13:13:32;100521.31;;;18.40;51.22
62710;BME280;48770;51.624;5.886;2022-10-01T13:16:09;100521.38;;;18.64;51.21
62710;BME280;48770;51.624;5.886;2022-10-01T13:24:03;100538.00;;;19.13;50.65
62710;BME280;48770;51.624;5.886;2022-10-01T13:32:03;100550.16;;;19.49;49.86
62710;BME280;48770;51.624;5.886;2022-10-01T13:34:49;100564.75;;;19.58;49.86
62710;BME280;48770;51.624;5.886;2022-10-01T13:37:34;100568.19;;;19.67;49.62
62710;BME280;48770;51.624;5.886;2022-10-01T13:40:00;100560.53;;;19.76;49.56
62710;BME280;48770;51.624;5.886;2022-10-01T13:42:28;100574.28;;;19.85;49.36
62710;BME280;48770;51.624;5.886;2022-10-01T13:45:05;100572.16;;;19.94;49.36
62710;BME280;48770;51.624;5.886;2022-10-01T13:47:34;100583.91;;;20.03;49.23
62710;BME280;48770;51.624;5.886;2022-10-01T13:50:17;100588.88;;;20.10;49.25
62710;BME280;48770;51.624;5.886;2022-10-01T13:52:44;100591.84;;;20.17;48.78
62710;BME280;48770;51.624;5.886;2022-10-01T13:55:27;100600.34;;;20.24;48.75
62710;BME280;48770;51.624;5.886;2022-10-01T13:58:05;100602.56;;;20.30;48.38
62710;BME280;48770;51.624;5.886;2022-10-01T14:00:31;100606.69;;;20.37;48.45
62710;BME280;48770;51.624;5.886;2022-10-01T14:03:05;100618.38;;;20.42;48.40
62710;BME280;48770;51.624;5.886;2022-10-01T14:05:54;100620.44;;;20.45;48.22
62710;BME280;48770;51.624;5.886;2022-10-01T14:08:27;100626.88;;;20.49;48.46
62710;BME280;48770;51.624;5.886;2022-10-01T14:10:59;100617.38;;;20.50;47.87
62710;BME280;48770;51.624;5.886;2022-10-01T14:13:46;100621.31;;;20.49;48.03
62710;BME280;48770;51.624;5.886;2022-10-01T14:16:35;100631.97;;;20.47;47.99
62710;BME280;48770;51.624;5.886;2022-10-01T14:19:02;100635.94;;;20.46;47.88
62710;BME280;48770;51.624;5.886;2022-10-01T14:26:57;100652.28;;;20.36;47.91
62710;BME280;48770;51.624;5.886;2022-10-01T14:37:29;100656.25;;;20.22;48.01
62710;BME280;48770;51.624;5.886;2022-10-01T14:40:05;100655.34;;;20.18;48.19
62710;BME280;48770;51.624;5.886;2022-10-01T14:42:36;100667.16;;;20.15;48.09
62710;BME280;48770;51.624;5.886;2022-10-01T14:45:13;100665.88;;;20.13;48.20
62710;BME280;48770;51.624;5.886;2022-10-01T14:47:39;100668.19;;;20.11;48.21
62710;BME280;48770;51.624;5.886;2022-10-01T14:50:19;100665.31;;;20.07;48.19
62710;BME280;48770;51.624;5.886;2022-10-01T14:52:47;100666.84;;;20.05;48.08
62710;BME280;48770;51.624;5.886;2022-10-01T14:55:17;100668.31;;;20.02;48.15